createdAt,value
2017-10-22T00:00:36.863Z,9.70
2017-10-22T00:03:06.974Z,10.05
2017-10-22T00:05:38.019Z,9.17
2017-10-22T00:08:08.241Z,7.90
2017-10-22T00:10:38.829Z,6.82
2017-10-22T00:13:09.243Z,7.18
2017-10-22T00:15:40.487Z,7.00
2017-10-22T00:18:11.278Z,6.45
2017-10-22T00:20:41.574Z,5.50
2017-10-22T00:23:11.868Z,5.12
2017-10-22T00:25:43.048Z,5.37
2017-10-22T00:28:13.431Z,5.03
2017-10-22T00:30:44.924Z,5.00
2017-10-22T00:33:15.419Z,4.50
2017-10-22T00:35:45.485Z,2.80
2017-10-22T00:38:15.593Z,2.83
2017-10-22T00:40:45.659Z,2.20
2017-10-22T00:43:16.661Z,2.60
2017-10-22T00:45:47.426Z,1.90
2017-10-22T00:48:17.532Z,1.80
2017-10-22T00:50:48.312Z,1.70
2017-10-22T00:53:18.680Z,1.10
2017-10-22T00:55:48.989Z,0.98
2017-10-22T00:58:19.717Z,0.82
2017-10-22T01:00:50.246Z,1.02
2017-10-22T01:03:20.312Z,0.88
2017-10-22T01:05:51.459Z,0.70
2017-10-22T01:08:21.557Z,1.00
2017-10-22T01:10:51.593Z,0.62
2017-10-22T01:13:21.728Z,0.62
2017-10-22T01:15:52.257Z,0.80
2017-10-22T01:18:23.045Z,0.88
2017-10-22T01:20:53.457Z,0.90
2017-10-22T01:23:23.524Z,1.00
2017-10-22T01:25:53.787Z,1.00
2017-10-22T01:28:24.215Z,0.80
2017-10-22T01:30:54.292Z,0.90
2017-10-22T01:33:25.581Z,0.90
2017-10-22T01:35:55.973Z,0.80
2017-10-22T01:38:26.804Z,0.70
2017-10-22T01:40:57.629Z,0.68
2017-10-22T01:43:28.496Z,1.00
2017-10-22T01:45:58.800Z,0.87
2017-10-22T01:48:29.456Z,0.80
2017-10-22T01:50:59.580Z,0.80
2017-10-22T01:53:29.818Z,0.70
2017-10-22T01:56:00.914Z,0.70
2017-10-22T01:58:31.509Z,0.80
2017-10-22T02:01:02.471Z,0.60
2017-10-22T02:03:33.257Z,0.60
2017-10-22T02:06:03.783Z,0.60
2017-10-22T02:08:34.146Z,0.60
2017-10-22T02:11:05.027Z,0.70
2017-10-22T02:13:35.820Z,0.50
2017-10-22T02:16:06.252Z,0.60
2017-10-22T02:18:37.195Z,0.50
2017-10-22T02:21:07.636Z,0.60
2017-10-22T02:23:37.764Z,0.70
2017-10-22T02:26:08.584Z,0.50
2017-10-22T02:28:38.716Z,0.50
2017-10-22T02:31:08.787Z,0.50
2017-10-22T02:33:38.814Z,0.50
2017-10-22T02:36:08.969Z,0.50
2017-10-22T02:38:39.207Z,0.30
2017-10-22T02:41:10.016Z,0.50
2017-10-22T02:43:40.049Z,0.40
2017-10-22T02:46:11.093Z,0.50
2017-10-22T02:48:42.927Z,0.60
2017-10-22T02:51:13.239Z,0.50
2017-10-22T02:53:43.698Z,0.40
2017-10-22T02:56:14.432Z,0.50
2017-10-22T02:58:45.442Z,1.12
2017-10-22T03:01:16.239Z,0.80
2017-10-22T03:03:46.975Z,0.60
2017-10-22T03:06:18.279Z,0.77
2017-10-22T03:08:48.854Z,0.90
2017-10-22T03:11:19.667Z,1.00
2017-10-22T03:16:52.162Z,0.60
2017-10-22T03:19:23.401Z,0.50
2017-10-22T03:21:53.933Z,0.80
2017-10-22T03:24:24.258Z,0.60
2017-10-22T03:26:56.425Z,0.70
2017-10-22T03:29:26.721Z,0.70
2017-10-22T03:31:57.323Z,0.70
2017-10-22T03:34:27.644Z,0.62
2017-10-22T03:36:58.440Z,0.70
2017-10-22T03:39:28.573Z,1.00
2017-10-22T03:41:59.176Z,1.00
2017-10-22T03:44:29.447Z,1.40
2017-10-22T03:47:01.360Z,0.88
2017-10-22T03:49:32.041Z,0.70
2017-10-22T03:52:03.099Z,0.60
2017-10-22T03:54:33.574Z,1.10
2017-10-22T03:57:04.460Z,0.70
2017-10-22T03:59:34.862Z,1.00
2017-10-22T04:02:04.971Z,1.00
2017-10-22T04:04:35.345Z,1.10
2017-10-22T04:07:05.642Z,1.10
2017-10-22T04:09:35.673Z,0.80
2017-10-22T04:12:05.856Z,1.00
2017-10-22T04:14:36.058Z,0.90
2017-10-22T04:17:06.424Z,1.00
2017-10-22T04:19:36.460Z,1.07
2017-10-22T04:22:06.629Z,1.00
2017-10-22T04:24:36.885Z,1.10
2017-10-22T04:27:07.113Z,0.80
2017-10-22T04:29:37.950Z,0.70
2017-10-22T04:32:08.040Z,1.10
2017-10-22T04:34:38.057Z,0.87
2017-10-22T04:37:08.418Z,0.80
2017-10-22T04:39:38.764Z,0.80
2017-10-22T04:42:09.105Z,1.30
2017-10-22T04:44:39.620Z,0.70
2017-10-22T04:47:10.189Z,0.95
2017-10-22T04:49:42.262Z,0.85
2017-10-22T04:52:13.166Z,0.95
2017-10-22T04:54:43.431Z,1.10
2017-10-22T04:57:14.242Z,0.70
2017-10-22T04:59:44.279Z,1.23
2017-10-22T05:02:15.372Z,1.00
2017-10-22T05:04:46.032Z,1.37
2017-10-22T05:07:17.249Z,1.20
2017-10-22T05:09:47.450Z,1.30
2017-10-22T05:12:17.739Z,0.80
2017-10-22T05:14:48.143Z,0.77
2017-10-22T05:17:19.020Z,1.00
2017-10-22T05:19:50.545Z,1.00
2017-10-22T05:22:22.092Z,1.20
2017-10-22T05:24:52.162Z,1.40
2017-10-22T05:27:22.214Z,1.30
2017-10-22T05:29:52.244Z,1.75
2017-10-22T05:32:22.256Z,1.30
2017-10-22T05:34:52.316Z,1.10
2017-10-22T05:37:23.545Z,0.90
2017-10-22T05:39:54.455Z,0.90
2017-10-22T05:42:24.497Z,0.70
2017-10-22T05:44:54.587Z,0.80
2017-10-22T05:47:24.816Z,0.70
2017-10-22T05:49:54.946Z,0.70
2017-10-22T05:52:24.992Z,0.50
2017-10-22T05:54:55.840Z,0.50
2017-10-22T05:57:26.260Z,0.50
2017-10-22T05:59:57.117Z,0.68
2017-10-22T06:02:27.474Z,0.50
2017-10-22T06:04:58.467Z,0.80
2017-10-22T06:07:29.187Z,0.50
2017-10-22T06:10:00.132Z,0.57
2017-10-22T06:12:31.436Z,0.62
2017-10-22T06:15:01.531Z,0.60
2017-10-22T06:17:40.648Z,0.60
2017-10-22T06:20:11.736Z,0.40
2017-10-22T06:22:42.052Z,0.70
2017-10-22T06:25:12.134Z,0.50
2017-10-22T06:27:42.160Z,0.60
2017-10-22T06:30:12.614Z,0.40
2017-10-22T06:32:42.689Z,0.80
2017-10-22T06:35:12.763Z,0.60
2017-10-22T06:37:43.376Z,0.55
2017-10-22T06:40:13.455Z,0.85
2017-10-22T06:42:44.403Z,0.80
2017-10-22T06:45:15.187Z,0.60
2017-10-22T06:47:45.543Z,0.70
2017-10-22T06:50:16.384Z,0.80
2017-10-22T06:52:46.906Z,0.57
2017-10-22T06:55:17.313Z,0.77
2017-10-22T06:57:47.732Z,0.80
2017-10-22T07:00:18.491Z,0.90
2017-10-22T07:02:48.576Z,1.33
2017-10-22T07:05:19.468Z,0.60
2017-10-22T07:07:50.135Z,0.60
2017-10-22T07:10:20.271Z,0.70
2017-10-22T07:12:51.070Z,0.60
2017-10-22T07:15:21.587Z,0.60
2017-10-22T07:17:51.990Z,0.60
2017-10-22T07:20:22.811Z,0.63
2017-10-22T07:22:52.866Z,0.70
2017-10-22T07:25:23.321Z,0.80
2017-10-22T07:27:53.644Z,0.70
2017-10-22T07:30:23.719Z,0.70
2017-10-22T07:32:55.048Z,0.60
2017-10-22T07:35:25.685Z,0.70
2017-10-22T07:37:56.072Z,0.70
2017-10-22T07:40:26.681Z,0.80
2017-10-22T07:42:57.412Z,0.60
2017-10-22T07:45:29.295Z,1.37
2017-10-22T07:48:08.792Z,0.90
2017-10-22T07:50:40.899Z,0.70
2017-10-22T07:53:11.829Z,0.67
2017-10-22T07:55:41.902Z,0.70
2017-10-22T07:58:12.240Z,0.80
2017-10-22T08:00:43.009Z,1.87
2017-10-22T08:03:13.353Z,0.85
2017-10-22T08:05:43.682Z,1.20
2017-10-22T08:08:13.724Z,1.20
2017-10-22T08:10:43.883Z,1.30
2017-10-22T08:13:14.002Z,1.00
2017-10-22T08:15:45.737Z,0.90
2017-10-22T08:18:15.815Z,0.70
2017-10-22T08:20:45.865Z,0.80
2017-10-22T08:23:15.938Z,0.77
2017-10-22T08:25:46.001Z,0.70
2017-10-22T08:28:16.209Z,1.00
2017-10-22T08:30:47.070Z,1.10
2017-10-22T08:33:17.095Z,1.10
2017-10-22T08:35:47.283Z,0.70
2017-10-22T08:38:17.716Z,0.60
2017-10-22T08:40:47.829Z,0.60
2017-10-22T08:44:37.445Z,0.90
2017-10-22T08:47:08.405Z,1.10
2017-10-22T08:49:39.163Z,0.88
2017-10-22T08:52:09.289Z,1.30
2017-10-22T08:54:39.771Z,1.40
2017-10-22T08:57:11.107Z,0.80
2017-10-22T08:59:42.204Z,0.68
2017-10-22T09:02:12.291Z,0.70
2017-10-22T09:04:42.721Z,0.90
2017-10-22T09:07:12.796Z,0.80
2017-10-22T09:09:43.677Z,0.70
2017-10-22T09:12:14.088Z,0.70
2017-10-22T09:14:45.151Z,0.80
2017-10-22T09:17:15.257Z,1.00
2017-10-22T09:19:45.656Z,1.00
2017-10-22T09:22:15.807Z,1.17
2017-10-22T09:24:46.044Z,1.20
2017-10-22T09:27:16.565Z,1.15
2017-10-22T09:29:48.601Z,1.00
2017-10-22T09:32:19.083Z,0.90
2017-10-22T09:34:50.268Z,1.35
2017-10-22T09:37:21.108Z,0.90
2017-10-22T09:39:51.132Z,1.00
2017-10-22T09:43:23.836Z,1.00
2017-10-22T09:45:55.607Z,1.30
2017-10-22T09:48:25.791Z,0.90
2017-10-22T09:50:56.697Z,1.02
2017-10-22T09:53:26.812Z,1.10
2017-10-22T09:55:56.896Z,1.00
2017-10-22T09:58:27.335Z,1.60
2017-10-22T10:00:58.072Z,0.95
2017-10-22T10:03:28.549Z,1.10
2017-10-22T10:05:58.612Z,0.90
2017-10-22T10:08:28.753Z,1.08
2017-10-22T10:10:58.820Z,0.90
2017-10-22T10:13:29.656Z,0.80
2017-10-22T10:16:00.404Z,0.60
2017-10-22T10:18:30.683Z,0.70
2017-10-22T10:21:01.529Z,0.88
2017-10-22T10:23:32.343Z,0.73
2017-10-22T10:26:02.423Z,0.70
2017-10-22T10:28:32.967Z,0.60
2017-10-22T10:31:03.736Z,0.70
2017-10-22T10:33:33.832Z,0.90
2017-10-22T10:36:04.336Z,0.75
2017-10-22T10:38:35.169Z,0.73
2017-10-22T10:41:05.263Z,1.20
2017-10-22T10:43:36.050Z,1.48
2017-10-22T10:46:06.157Z,0.60
2017-10-22T10:48:36.263Z,0.80
2017-10-22T10:51:06.446Z,0.80
2017-10-22T10:53:37.614Z,0.60
2017-10-22T10:56:07.770Z,0.80
2017-10-22T10:58:37.921Z,0.85
2017-10-22T11:01:08.074Z,0.90
2017-10-22T11:03:38.513Z,1.10
2017-10-22T11:06:09.272Z,0.60
2017-10-22T11:08:41.021Z,0.68
2017-10-22T11:11:11.557Z,0.60
2017-10-22T11:13:41.752Z,0.82
2017-10-22T11:16:12.152Z,0.50
2017-10-22T11:18:42.224Z,0.50
2017-10-22T11:21:12.226Z,0.50
2017-10-22T11:23:43.347Z,0.80
2017-10-22T11:26:14.161Z,0.60
2017-10-22T11:28:44.332Z,0.90
2017-10-22T11:31:14.752Z,0.70
2017-10-22T11:33:44.816Z,0.80
2017-10-22T11:36:14.964Z,0.88
2017-10-22T11:38:45.045Z,0.80
2017-10-22T11:41:15.086Z,0.80
2017-10-22T11:43:45.655Z,1.00
2017-10-22T11:46:16.479Z,0.90
2017-10-22T11:48:47.436Z,0.70
2017-10-22T11:51:18.932Z,0.95
2017-10-22T11:53:49.328Z,0.90
2017-10-22T11:56:19.424Z,1.10
2017-10-22T11:58:51.050Z,1.10
2017-10-22T12:01:21.193Z,1.30
2017-10-22T12:03:52.148Z,0.90
2017-10-22T12:06:22.468Z,1.20
2017-10-22T12:08:53.359Z,1.80
2017-10-22T12:11:23.541Z,1.00
2017-10-22T12:13:53.758Z,1.10
2017-10-22T12:16:23.962Z,1.10
2017-10-22T12:18:54.896Z,1.05
2017-10-22T12:21:26.316Z,1.17
2017-10-22T12:23:56.639Z,0.70
2017-10-22T12:26:31.136Z,0.80
2017-10-22T12:29:01.571Z,1.40
2017-10-22T12:31:31.870Z,1.10
2017-10-22T12:34:02.459Z,1.00
2017-10-22T12:36:33.379Z,2.00
2017-10-22T12:39:04.048Z,1.08
2017-10-22T12:41:34.334Z,0.90
2017-10-22T12:44:04.506Z,1.02
2017-10-22T12:46:34.695Z,1.27
2017-10-22T12:49:04.826Z,0.90
2017-10-22T12:51:36.186Z,0.87
2017-10-22T12:54:06.535Z,0.93
2017-10-22T12:56:36.709Z,0.90
2017-10-22T12:59:06.840Z,0.75
2017-10-22T13:01:37.924Z,0.90
2017-10-22T13:04:08.103Z,0.90
2017-10-22T13:06:39.021Z,1.10
2017-10-22T13:09:09.547Z,1.00
2017-10-22T13:11:39.701Z,0.93
2017-10-22T13:14:10.687Z,0.98
2017-10-22T13:16:40.876Z,0.80
2017-10-22T13:19:11.158Z,0.90
2017-10-22T13:21:41.343Z,0.90
2017-10-22T13:24:12.775Z,0.90
2017-10-22T13:26:43.582Z,1.27
2017-10-22T13:29:15.608Z,1.10
2017-10-22T13:31:45.767Z,0.73
2017-10-22T13:34:16.699Z,0.90
2017-10-22T13:36:46.924Z,1.20
2017-10-22T13:39:18.340Z,0.93
2017-10-22T13:41:48.483Z,0.60
2017-10-22T13:44:18.693Z,0.80
2017-10-22T13:46:48.857Z,0.80
2017-10-22T13:49:18.999Z,0.80
2017-10-22T13:51:49.754Z,1.20
2017-10-22T13:54:19.855Z,1.00
2017-10-22T13:56:50.230Z,1.10
2017-10-22T13:59:20.683Z,1.30
2017-10-22T14:01:52.287Z,1.00
2017-10-22T14:04:23.576Z,1.20
2017-10-22T14:06:53.835Z,2.30
2017-10-22T14:09:24.915Z,1.30
2017-10-22T14:11:55.894Z,1.70
2017-10-22T14:14:26.851Z,0.93
2017-10-22T14:16:57.049Z,1.00
2017-10-22T14:19:28.266Z,1.40
2017-10-22T14:21:58.444Z,2.00
2017-10-22T14:24:28.601Z,1.80
2017-10-22T14:26:58.868Z,1.40
2017-10-22T14:29:29.931Z,1.50
2017-10-22T14:32:00.075Z,1.70
2017-10-22T14:34:30.514Z,3.05
2017-10-22T14:37:00.717Z,2.00
2017-10-22T14:39:30.902Z,1.60
2017-10-22T14:42:01.724Z,2.30
2017-10-22T14:44:32.707Z,1.80
2017-10-22T14:47:03.085Z,1.70
2017-10-22T14:49:34.011Z,1.83
2017-10-22T14:52:04.421Z,1.40
2017-10-22T14:54:34.591Z,1.50
2017-10-22T14:57:05.039Z,1.40
2017-10-22T14:59:35.897Z,1.67
2017-10-22T15:02:06.644Z,1.10
2017-10-22T15:04:37.264Z,1.00
2017-10-22T15:07:15.246Z,1.50
2017-10-22T15:09:45.716Z,1.00
2017-10-22T15:12:16.848Z,1.27
2017-10-22T15:14:47.949Z,1.20
2017-10-22T15:17:18.736Z,1.10
2017-10-22T15:19:49.688Z,1.50
2017-10-22T15:22:20.724Z,1.20
2017-10-22T15:24:51.668Z,1.30
2017-10-22T15:27:22.592Z,1.60
2017-10-22T15:29:52.832Z,1.37
2017-10-22T15:32:24.462Z,1.60
2017-10-22T15:34:58.005Z,1.65
2017-10-22T15:37:29.288Z,1.95
2017-10-22T15:39:59.414Z,2.78
2017-10-22T15:42:29.664Z,3.10
2017-10-22T15:45:01.161Z,2.40
2017-10-22T15:47:31.419Z,3.10
2017-10-22T15:50:02.928Z,2.78
2017-10-22T15:52:34.329Z,2.10
2017-10-22T15:55:04.515Z,2.58
2017-10-22T15:57:34.931Z,3.05
2017-10-22T16:00:09.688Z,2.60
2017-10-22T16:02:40.322Z,2.95
2017-10-22T16:05:10.615Z,2.60
2017-10-22T16:07:40.803Z,2.95
2017-10-22T16:10:11.379Z,3.50
2017-10-22T16:12:41.750Z,2.30
2017-10-22T16:15:11.979Z,2.50
2017-10-22T16:17:42.376Z,3.22
2017-10-22T16:20:13.717Z,3.80
2017-10-22T16:22:43.978Z,3.80
2017-10-22T16:25:15.107Z,3.30
2017-10-22T16:27:46.120Z,3.40
2017-10-22T16:30:16.463Z,3.17
2017-10-22T16:32:47.047Z,3.10
2017-10-22T16:35:25.019Z,3.35
2017-10-22T16:37:55.240Z,2.70
2017-10-22T16:40:25.862Z,2.40
2017-10-22T16:42:56.341Z,3.20
2017-10-22T16:45:26.807Z,3.00
2017-10-22T16:47:58.903Z,3.78
2017-10-22T16:50:30.796Z,3.20
2017-10-22T16:53:01.956Z,3.25
2017-10-22T16:55:32.190Z,3.45
2017-10-22T16:58:03.444Z,1.60
2017-10-22T17:00:36.460Z,1.73
2017-10-22T17:03:07.601Z,1.45
2017-10-22T17:05:38.294Z,1.40
2017-10-22T17:08:09.092Z,1.40
2017-10-22T17:10:41.626Z,1.37
2017-10-22T17:13:12.025Z,1.50
2017-10-22T17:15:42.242Z,1.30
2017-10-22T17:18:12.771Z,1.30
2017-10-22T17:20:45.525Z,1.50
2017-10-22T17:23:19.898Z,1.58
2017-10-22T17:25:53.032Z,1.30
2017-10-22T17:28:23.575Z,1.40
2017-10-22T17:30:53.856Z,1.17
2017-10-22T17:33:26.607Z,1.50
2017-10-22T17:35:57.574Z,1.40
2017-10-22T17:38:28.617Z,1.50
2017-10-22T17:41:00.375Z,2.08
2017-10-22T17:43:31.329Z,2.80
2017-10-22T17:46:02.394Z,2.40
2017-10-22T17:48:33.258Z,2.58
2017-10-22T17:51:05.946Z,2.45
2017-10-22T17:53:37.572Z,1.83
2017-10-22T17:56:07.990Z,2.95
2017-10-22T17:58:38.238Z,2.00
2017-10-22T18:01:08.533Z,1.70
2017-10-22T18:03:38.742Z,1.60
2017-10-22T18:06:09.713Z,1.60
2017-10-22T18:08:40.059Z,1.70
2017-10-22T18:11:10.496Z,1.30
2017-10-22T18:13:40.752Z,1.40
2017-10-22T18:16:12.056Z,1.05
2017-10-22T18:18:43.630Z,1.33
2017-10-22T18:21:14.434Z,1.40
2017-10-22T18:23:44.784Z,1.50
2017-10-22T18:26:15.035Z,1.62
2017-10-22T18:28:47.179Z,1.98
2017-10-22T18:31:19.244Z,2.35
2017-10-22T18:33:50.312Z,2.15
2017-10-22T18:36:21.028Z,2.00
2017-10-22T18:38:51.705Z,2.22
2017-10-22T18:41:23.198Z,1.80
2017-10-22T18:43:55.195Z,1.85
2017-10-22T18:46:27.626Z,2.25
2017-10-22T18:48:59.009Z,1.50
2017-10-22T18:51:30.123Z,1.87
2017-10-22T18:54:03.702Z,1.40
2017-10-22T18:56:35.922Z,1.70
2017-10-22T18:59:07.024Z,1.40
2017-10-22T19:01:37.603Z,2.30
2017-10-22T19:04:07.856Z,2.25
2017-10-22T19:06:38.414Z,2.15
2017-10-22T19:09:08.962Z,2.90
2017-10-22T19:11:40.717Z,13.45
2017-10-22T19:14:11.544Z,29.67
2017-10-22T19:16:43.024Z,23.83
2017-10-22T19:19:14.395Z,4.60
2017-10-22T19:21:45.428Z,4.20
2017-10-22T19:24:18.098Z,3.60
2017-10-22T19:26:48.713Z,2.55
2017-10-22T19:29:19.195Z,1.10
2017-10-22T19:31:49.877Z,1.77
2017-10-22T19:34:21.556Z,1.40
2017-10-22T19:36:52.733Z,1.30
2017-10-22T19:39:22.964Z,1.20
2017-10-22T19:41:54.432Z,1.20
2017-10-22T19:44:25.316Z,1.50
2017-10-22T19:46:56.502Z,1.60
2017-10-22T19:49:27.011Z,1.50
2017-10-22T19:51:57.242Z,1.90
2017-10-22T19:54:27.812Z,1.62
2017-10-22T19:56:58.904Z,1.50
2017-10-22T19:59:29.501Z,1.17
2017-10-22T20:01:59.829Z,2.20
2017-10-22T20:04:30.702Z,1.80
2017-10-22T20:07:00.919Z,2.47
2017-10-22T20:09:31.333Z,1.90
2017-10-22T20:12:01.499Z,2.20
2017-10-22T20:14:31.654Z,2.30
2017-10-22T20:17:02.594Z,2.35
2017-10-22T20:19:33.762Z,1.80
2017-10-22T20:22:03.877Z,2.10
2017-10-22T20:24:34.044Z,2.08
2017-10-22T20:27:04.172Z,2.10
2017-10-22T20:29:34.288Z,2.42
2017-10-22T20:32:04.489Z,2.20
2017-10-22T20:34:34.665Z,1.80
2017-10-22T20:37:04.851Z,1.80
2017-10-22T20:39:35.460Z,1.80
2017-10-22T20:42:05.592Z,2.20
2017-10-22T20:44:35.745Z,1.80
2017-10-22T20:47:06.708Z,1.63
2017-10-22T20:49:36.806Z,1.85
2017-10-22T20:52:07.708Z,1.80
2017-10-22T20:54:38.023Z,2.20
2017-10-22T20:57:08.246Z,2.30
2017-10-22T20:59:38.376Z,2.40
2017-10-22T21:02:08.551Z,1.83
2017-10-22T21:04:38.699Z,2.10
2017-10-22T21:07:08.845Z,1.65
2017-10-22T21:09:39.055Z,3.10
2017-10-22T21:12:09.168Z,2.60
2017-10-22T21:14:39.308Z,2.40
2017-10-22T21:17:09.947Z,2.05
2017-10-22T21:19:40.043Z,2.17
2017-10-22T21:22:10.272Z,2.05
2017-10-22T21:24:40.665Z,1.45
2017-10-22T21:27:10.782Z,2.40
2017-10-22T21:29:40.926Z,2.20
2017-10-22T21:32:12.252Z,1.50
2017-10-22T21:34:42.713Z,1.50
2017-10-22T21:37:13.229Z,1.37
2017-10-22T21:39:44.138Z,1.25
2017-10-22T21:42:14.429Z,1.50
2017-10-22T21:44:45.666Z,1.50
2017-10-22T21:47:16.111Z,1.05
2017-10-22T21:49:47.360Z,1.30
2017-10-22T21:52:18.343Z,1.00
2017-10-22T21:54:49.217Z,1.00
2017-10-22T21:57:19.649Z,1.10
2017-10-22T21:59:50.560Z,0.98
2017-10-22T22:02:20.971Z,2.45
2017-10-22T22:04:52.258Z,2.20
2017-10-22T22:07:22.391Z,1.30
2017-10-22T22:09:53.450Z,1.37
2017-10-22T22:12:23.585Z,1.30
2017-10-22T22:14:53.714Z,1.10
2017-10-22T22:17:23.920Z,1.20
2017-10-22T22:19:54.000Z,1.10
2017-10-22T22:22:24.170Z,1.10
2017-10-22T22:24:54.407Z,1.00
2017-10-22T22:27:24.506Z,1.00
2017-10-22T22:29:54.640Z,1.00
2017-10-22T22:32:25.032Z,1.12
2017-10-22T22:34:55.423Z,1.20
2017-10-22T22:37:26.100Z,0.90
2017-10-22T22:39:56.490Z,0.93
2017-10-22T22:42:26.791Z,1.00
2017-10-22T22:44:57.747Z,1.60
2017-10-22T22:47:28.191Z,1.00
2017-10-22T22:49:59.285Z,1.10
2017-10-22T22:52:30.191Z,0.97
2017-10-22T22:55:01.479Z,0.80
2017-10-22T22:57:31.556Z,1.20
2017-10-22T23:00:03.287Z,0.60
2017-10-22T23:02:33.472Z,1.17
2017-10-22T23:05:04.033Z,1.20
2017-10-22T23:07:34.415Z,1.05
2017-10-22T23:10:04.868Z,1.00
2017-10-22T23:12:35.668Z,0.90
2017-10-22T23:15:05.835Z,0.95
2017-10-22T23:17:37.536Z,0.90
2017-10-22T23:20:07.908Z,0.85
2017-10-22T23:22:38.129Z,0.70
2017-10-22T23:25:08.963Z,1.00
2017-10-22T23:27:39.337Z,0.70
2017-10-22T23:30:09.582Z,0.90
2017-10-22T23:32:39.720Z,0.90
2017-10-22T23:35:10.252Z,0.90
2017-10-22T23:37:40.386Z,0.75
2017-10-22T23:40:10.534Z,1.33
2017-10-22T23:42:41.091Z,1.50
2017-10-22T23:45:11.182Z,1.20
2017-10-22T23:47:42.051Z,1.00
2017-10-22T23:50:13.328Z,1.30
2017-10-22T23:52:44.219Z,0.80
2017-10-22T23:55:15.011Z,0.80
2017-10-22T23:57:45.469Z,0.90
